Time;durP1;ratioP1;P1;durP2;ratioP2;P2;SDS_P1;SDS_P2;PMS_P1;PMS_P2;Temp;Humidity;BMP_temperature;BMP_pressure;BME280_temperature;BME280_humidity;BME280_pressure;Samples;Min_cycle;Max_cycle;Signal;HPM_P1;HPM_P2
2023/11/11 00:01:39;;;;;;;53.00;42.60;;;;;;;8.08;100.00;99067.63;112758;1241;21952;-76
2023/11/11 00:04:41;;;;;;;104.80;67.30;;;;;;;8.06;100.00;99067.38;113253;1234;23025;-80
2023/11/11 00:07:36;;;;;;;58.70;42.90;;;;;;;8.03;100.00;99063.34;113265;1234;21945;-78
2023/11/11 00:10:39;;;;;;;77.10;48.10;;;;;;;8.01;100.00;99058.06;113333;1234;22954;-78
2023/11/11 00:13:29;;;;;;;58.20;41.00;;;;;;;7.99;100.00;99054.54;113225;1234;21971;-77
2023/11/11 00:16:36;;;;;;;54.90;41.30;;;;;;;7.96;100.00;99048.27;113266;1236;21971;-77
2023/11/11 00:19:33;;;;;;;49.20;39.50;;;;;;;7.94;100.00;99049.93;113337;1235;24409;-78
2023/11/11 00:22:29;;;;;;;50.80;38.70;;;;;;;7.92;100.00;99052.77;112727;1240;22743;-77
2023/11/11 00:25:11;;;;;;;43.80;35.50;;;;;;;7.90;100.00;99054.27;111949;1247;21967;-77
2023/11/11 00:27:51;;;;;;;48.50;36.90;;;;;;;7.86;100.00;99056.36;111925;1247;22038;-78
2023/11/11 00:30:30;;;;;;;49.50;37.60;;;;;;;7.83;100.00;99059.80;111321;1253;24040;-77
2023/11/11 00:33:23;;;;;;;52.10;41.20;;;;;;;7.78;100.00;99056.40;111335;1253;21978;-78
2023/11/11 00:36:04;;;;;;;55.00;40.90;;;;;;;7.73;100.00;99057.14;110713;1260;23635;-77
2023/11/11 00:39:10;;;;;;;52.90;40.70;;;;;;;7.67;100.00;99058.63;110608;1259;22237;-77
2023/11/11 00:41:58;;;;;;;57.70;43.00;;;;;;;7.63;100.00;99057.58;110943;1255;22053;-77
2023/11/11 00:44:47;;;;;;;57.60;42.40;;;;;;;7.60;100.00;99060.01;111957;1247;22044;-78
2023/11/11 00:47:39;;;;;;;63.40;45.00;;;;;;;7.54;100.00;99058.55;111843;1241;21957;-78
2023/11/11 00:50:24;;;;;;;61.60;46.20;;;;;;;7.50;100.00;99056.96;112541;1240;21963;-78
2023/11/11 00:53:13;;;;;;;64.30;47.50;;;;;;;7.49;100.00;99051.50;112459;1241;22604;-76
2023/11/11 00:55:52;;;;;;;66.70;51.10;;;;;;;7.46;100.00;99049.89;113326;1234;21991;-78
2023/11/11 00:58:40;;;;;;;65.10;47.60;;;;;;;7.42;100.00;99044.17;113317;1235;22729;-78
2023/11/11 01:01:25;;;;;;;;;;;;;;;;;;;;;
2023/11/11 01:04:00;;;;;;;55.90;44.40;;;;;;;7.39;100.00;99048.48;113555;1234;23572;-79
2023/11/11 01:06:39;;;;;;;51.60;40.50;;;;;;;7.38;100.00;99050.10;113317;1235;21985;-77
2023/11/11 01:09:19;;;;;;;49.90;40.50;;;;;;;7.35;100.00;99050.55;113530;1235;21942;-77
2023/11/11 01:12:09;;;;;;;52.50;37.80;;;;;;;7.34;100.00;99054.06;113206;1234;22217;-78
2023/11/11 01:14:52;;;;;;;49.90;39.50;;;;;;;7.33;100.00;99052.57;113395;1235;24019;-78
2023/11/11 01:17:28;;;;;;;57.70;38.60;;;;;;;7.31;100.00;99057.00;113246;1234;22174;-77
2023/11/11 01:20:15;;;;;;;50.20;38.20;;;;;;;7.28;100.00;99054.50;113332;1234;23675;-76
2023/11/11 01:23:01;;;;;;;49.40;39.00;;;;;;;7.25;100.00;99051.73;113477;1234;23662;-77
2023/11/11 01:25:57;;;;;;;48.50;39.30;;;;;;;7.20;100.00;99053.67;113242;1234;24361;-76
2023/11/11 01:28:44;;;;;;;51.00;39.30;;;;;;;7.16;100.00;99046.40;113428;1234;22779;-78
2023/11/11 01:31:24;;;;;;;49.60;37.80;;;;;;;7.11;100.00;99047.84;113201;1234;21941;-77
2023/11/11 01:34:06;;;;;;;52.80;39.00;;;;;;;7.06;100.00;99048.58;112830;1240;21973;-76
2023/11/11 01:36:40;;;;;;;;;;;;;;;7.03;100.00;99048.00;112797;1240;22205;-76
2023/11/11 01:39:16;;;;;;;50.20;37.10;;;;;;;6.91;100.00;99046.81;112881;1240;23579;-77
2023/11/11 01:41:58;;;;;;;51.30;39.20;;;;;;;6.85;100.00;99044.64;112593;1240;22417;-77
2023/11/11 01:44:42;;;;;;;58.90;45.10;;;;;;;6.82;100.00;99049.09;112871;1240;24390;-77
2023/11/11 01:47:29;;;;;;;55.30;42.50;;;;;;;6.77;100.00;99052.27;112436;1240;22003;-76
2023/11/11 01:50:09;;;;;;;56.20;41.40;;;;;;;6.72;100.00;99052.48;112329;1244;22721;-78
2023/11/11 01:53:02;;;;;;;52.60;39.50;;;;;;;6.67;100.00;99051.48;112663;1240;24012;-75
2023/11/11 01:55:57;;;;;;;;;;;;;;;;;;;;;
2023/11/11 01:58:43;;;;;;;58.80;41.30;;;;;;;6.55;100.00;99045.23;112586;1240;22638;-77
2023/11/11 02:01:22;;;;;;;51.80;40.80;;;;;;;6.51;100.00;99049.54;112743;1239;22040;-77
2023/11/11 02:03:59;;;;;;;48.50;38.50;;;;;;;6.46;100.00;99041.43;112924;1239;21912;-76
2023/11/11 02:06:35;;;;;;;47.80;37.60;;;;;;;6.45;100.00;99039.75;112012;1245;21958;-77
2023/11/11 02:09:34;;;;;;;48.20;38.00;;;;;;;6.44;100.00;99037.21;112714;1240;21989;-77
2023/11/11 02:12:08;;;;;;;52.20;39.80;;;;;;;6.37;100.00;99038.70;112566;1240;21963;-76
2023/11/11 02:14:53;;;;;;;49.70;38.10;;;;;;;6.32;100.00;99035.64;112760;1240;23634;-77
2023/11/11 02:17:52;;;;;;;47.30;38.90;;;;;;;6.28;100.00;99035.81;112301;1242;21979;-78
2023/11/11 02:20:39;;;;;;;56.90;42.20;;;;;;;6.23;100.00;99033.40;112108;1244;21947;-77
2023/11/11 02:23:42;;;;;;;62.50;46.40;;;;;;;6.15;100.00;99029.42;112332;1244;23616;-78
2023/11/11 02:26:40;;;;;;;70.10;50.30;;;;;;;6.08;100.00;99027.81;112558;1241;22009;-78
2023/11/11 02:29:26;;;;;;;63.90;45.30;;;;;;;6.03;100.00;99026.11;112679;1240;21975;-76
2023/11/11 02:32:04;;;;;;;51.30;38.70;;;;;;;6.00;100.00;99025.36;112710;1241;21971;-79
2023/11/11 02:34:52;;;;;;;46.50;38.00;;;;;;;5.84;100.00;99001.31;112761;1236;22280;-77
2023/11/11 02:37:25;;;;;;;49.20;39.50;;;;;;;5.96;100.00;99023.27;113417;1234;23671;-77
2023/11/11 02:40:12;;;;;;;45.30;37.10;;;;;;;5.96;100.00;99023.09;113092;1236;21969;-77
2023/11/11 02:42:56;;;;;;;45.10;37.80;;;;;;;5.93;100.00;99022.52;113417;1234;22713;-77
2023/11/11 02:45:40;;;;;;;49.10;37.30;;;;;;;5.89;100.00;99019.02;112902;1239;21948;-78
2023/11/11 02:48:22;;;;;;;46.70;37.50;;;;;;;5.86;100.00;99019.50;113132;1239;23123;-78
2023/11/11 02:51:24;;;;;;;56.90;40.40;;;;;;;5.83;100.00;99018.23;112866;1239;23677;-78
2023/11/11 02:54:12;;;;;;;51.40;39.90;;;;;;;5.83;100.00;99017.21;112298;1245;21959;-77
2023/11/11 02:56:46;;;;;;;53.10;41.10;;;;;;;5.81;100.00;99013.46;112590;1245;23719;-77
2023/11/11 02:59:40;;;;;;;59.40;43.20;;;;;;;5.81;100.00;99014.70;112128;1237;21952;-77
2023/11/11 03:02:25;;;;;;;54.10;40.80;;;;;;;5.80;100.00;99013.02;112059;1245;23117;-79
2023/11/11 03:05:07;;;;;;;50.90;39.60;;;;;;;5.79;100.00;99012.88;112147;1245;21984;-77
2023/11/11 03:07:39;;;;;;;49.30;39.50;;;;;;;5.77;100.00;99012.92;111479;1251;22029;-77
2023/11/11 03:10:23;;;;;;;46.10;37.50;;;;;;;5.76;100.00;99006.42;111780;1247;23714;-78
2023/11/11 03:13:17;;;;;;;45.70;38.10;;;;;;;5.74;100.00;98999.44;111850;1248;21983;-79
2023/11/11 03:16:00;;;;;;;46.90;35.70;;;;;;;5.68;100.00;98995.00;111255;1253;21993;-78
2023/11/11 03:18:46;;;;;;;42.10;36.80;;;;;;;5.67;100.00;98999.17;110675;1259;21946;-79
2023/11/11 03:21:26;;;;;;;45.90;38.30;;;;;;;5.65;100.00;98998.56;110701;1259;21988;-77
2023/11/11 03:24:05;;;;;;;44.40;35.60;;;;;;;5.62;100.00;98995.59;110757;1259;22103;-79
2023/11/11 03:26:43;;;;;;;45.90;38.00;;;;;;;5.59;100.00;98994.48;111039;1254;21967;-77
2023/11/11 03:29:48;;;;;;;51.20;39.70;;;;;;;5.55;100.00;98994.81;111246;1254;22986;-77
2023/11/11 03:32:29;;;;;;;49.60;38.30;;;;;;;5.49;100.00;98983.33;111085;1253;22030;-78
2023/11/11 03:35:36;;;;;;;;;;;;;;;;;;;;;
2023/11/11 03:38:09;;;;;;;54.10;46.00;;;;;;;5.50;100.00;98991.41;112242;1241;23652;-77
2023/11/11 03:40:43;;;;;;;48.90;39.60;;;;;;;5.47;100.00;98987.89;112352;1241;23024;-78
2023/11/11 03:43:37;;;;;;;45.50;37.80;;;;;;;5.43;100.00;98985.45;112472;1240;21988;-78
2023/11/11 03:46:17;;;;;;;52.30;40.50;;;;;;;5.38;100.00;98991.48;111924;1245;21997;-77
2023/11/11 03:48:55;;;;;;;46.50;39.10;;;;;;;5.34;100.00;98989.26;111428;1251;21975;-78
2023/11/11 03:51:40;;;;;;;52.90;40.80;;;;;;;5.29;100.00;98988.08;111008;1256;21986;-79
2023/11/11 03:54:49;;;;;;;54.60;42.90;;;;;;;5.23;100.00;98986.37;111152;1255;23018;-76
2023/11/11 03:57:29;;;;;;;47.30;36.90;;;;;;;5.22;100.00;98988.16;111290;1252;22218;-80
2023/11/11 04:00:16;;;;;;;47.10;38.70;;;;;;;5.19;100.00;98983.95;111570;1251;23027;-78
2023/11/11 04:03:03;;;;;;;52.90;41.30;;;;;;;5.16;100.00;98979.25;111638;1249;23025;-77
2023/11/11 04:05:47;;;;;;;59.90;50.90;;;;;;;5.14;100.00;98980.85;111926;1247;21962;-77
2023/11/11 04:08:34;;;;;;;57.20;49.30;;;;;;;4.99;100.00;98965.19;112706;1241;23705;-76
2023/11/11 04:11:18;;;;;;;61.50;49.90;;;;;;;5.08;100.00;98979.86;112762;1241;22081;-77
2023/11/11 04:14:04;;;;;;;55.40;46.40;;;;;;;5.07;100.00;98980.77;112783;1240;24377;-77
2023/11/11 04:16:48;;;;;;;;;;;;;;;5.07;100.00;98987.31;112794;1240;21955;-77
2023/11/11 04:19:26;;;;;;;56.60;46.00;;;;;;;4.99;100.00;98989.70;112263;1244;21988;-78
2023/11/11 04:22:12;;;;;;;67.40;57.30;;;;;;;5.00;100.00;98986.90;112197;1244;21952;-77
2023/11/11 04:24:50;;;;;;;91.40;57.90;;;;;;;4.98;100.00;98986.28;112059;1244;21981;-77
2023/11/11 04:27:23;;;;;;;108.00;60.00;;;;;;;4.93;100.00;98985.05;111946;1244;23581;-78
2023/11/11 04:30:05;;;;;;;80.10;58.80;;;;;;;4.84;100.00;98984.36;112368;1239;21961;-77
2023/11/11 04:32:53;;;;;;;67.50;58.00;;;;;;;4.80;100.00;98984.69;112714;1239;21975;-77
2023/11/11 04:35:22;;;;;;;89.90;73.60;;;;;;;4.78;100.00;98986.30;113113;1239;24334;-77
2023/11/11 04:37:54;;;;;;;85.40;65.10;;;;;;;4.78;100.00;98988.20;113143;1235;22092;-77
2023/11/11 04:40:26;;;;;;;77.90;61.80;;;;;;;4.76;100.00;98990.70;113297;1234;23728;-78
2023/11/11 04:43:03;;;;;;;71.00;54.10;;;;;;;4.73;100.00;98989.06;113387;1234;21938;-77
2023/11/11 04:45:42;;;;;;;65.20;53.40;;;;;;;4.68;100.00;98987.86;113477;1225;21947;-77
2023/11/11 04:48:22;;;;;;;89.60;75.20;;;;;;;4.64;100.00;98986.80;112792;1240;22049;-78
2023/11/11 04:51:14;;;;;;;93.80;71.50;;;;;;;4.62;100.00;98981.53;112297;1244;22035;-79
2023/11/11 04:53:53;;;;;;;76.90;61.50;;;;;;;4.57;100.00;98979.32;112051;1244;22750;-78
2023/11/11 04:56:42;;;;;;;78.60;59.10;;;;;;;4.54;100.00;98986.64;112281;1244;21933;-79
2023/11/11 04:59:31;;;;;;;77.00;59.80;;;;;;;4.47;100.00;98988.75;111730;1249;23694;-77
2023/11/11 05:02:25;;;;;;;98.70;79.70;;;;;;;4.42;100.00;98994.96;111968;1249;21953;-78
2023/11/11 05:05:10;;;;;;;80.00;63.40;;;;;;;4.37;100.00;98998.41;111109;1254;21963;-79
2023/11/11 05:07:58;;;;;;;70.60;55.20;;;;;;;4.32;100.00;98995.33;111213;1254;21974;-78
2023/11/11 05:10:42;;;;;;;80.60;54.80;;;;;;;4.28;100.00;98995.46;111654;1248;22731;-76
2023/11/11 05:13:44;;;;;;;78.60;55.70;;;;;;;4.20;100.00;98991.77;111075;1254;22044;-76
2023/11/11 05:16:39;;;;;;;68.10;52.70;;;;;;;4.15;100.00;99006.23;111034;1259;21977;-77
2023/11/11 05:19:29;;;;;;;67.70;53.10;;;;;;;4.11;100.00;99010.14;111055;1257;21981;-78
2023/11/11 05:22:06;;;;;;;67.60;51.80;;;;;;;4.09;100.00;99008.80;110983;1259;21975;-79
2023/11/11 05:24:58;;;;;;;75.90;57.80;;;;;;;4.09;100.00;99007.42;111092;1257;22204;-78
2023/11/11 05:27:59;;;;;;;76.20;55.40;;;;;;;4.04;100.00;99004.67;111038;1257;23716;-77
2023/11/11 05:30:44;;;;;;;80.60;61.40;;;;;;;3.98;100.00;99008.15;110951;1254;23470;-79
2023/11/11 05:33:24;;;;;;;89.60;66.40;;;;;;;3.94;100.00;99005.36;111717;1249;22067;-78
2023/11/11 05:36:24;;;;;;;89.40;65.40;;;;;;;3.89;100.00;99005.66;111975;1248;23051;-77
2023/11/11 05:39:16;;;;;;;82.10;59.80;;;;;;;3.85;100.00;99009.92;112434;1244;22401;-77
2023/11/11 05:42:34;;;;;;;80.80;57.10;;;;;;;3.81;100.00;99016.09;112405;1244;23724;-78
2023/11/11 05:45:16;;;;;;;80.00;57.70;;;;;;;3.80;100.00;99017.84;112426;1245;23130;-77
2023/11/11 05:48:03;;;;;;;80.80;58.40;;;;;;;3.79;100.00;99018.04;112853;1240;22974;-76
2023/11/11 05:51:13;;;;;;;75.90;55.40;;;;;;;3.76;100.00;99021.57;112676;1240;23005;-78
2023/11/11 05:54:25;;;;;;;66.60;51.90;;;;;;;3.71;100.00;99024.12;112307;1244;21963;-78
2023/11/11 05:57:09;;;;;;;68.40;52.30;;;;;;;3.66;100.00;99026.17;111428;1251;21964;-76
2023/11/11 05:59:46;;;;;;;75.60;58.30;;;;;;;3.64;100.00;99026.76;111122;1254;22887;-79
2023/11/11 06:02:38;;;;;;;71.10;53.70;;;;;;;3.62;100.00;99028.89;111388;1253;23616;-76
2023/11/11 06:05:16;;;;;;;;;;;;;;;3.61;100.00;99029.27;111101;1257;23725;-76
2023/11/11 06:07:58;;;;;;;75.20;52.40;;;;;;;3.50;100.00;99029.25;110901;1258;23645;-79
2023/11/11 06:10:56;;;;;;;63.90;50.50;;;;;;;3.45;100.00;99029.56;110932;1258;21987;-78
2023/11/11 06:13:48;;;;;;;62.40;47.00;;;;;;;3.32;100.00;99014.81;111438;1251;22313;-77
2023/11/11 06:16:32;;;;;;;59.20;49.90;;;;;;;3.45;100.00;99036.63;111520;1251;24277;-78
2023/11/11 06:19:17;;;;;;;60.00;50.70;;;;;;;3.44;100.00;99031.84;112278;1245;21998;-77
2023/11/11 06:22:05;;;;;;;70.10;50.20;;;;;;;3.43;100.00;99032.71;112020;1245;22463;-77
2023/11/11 06:25:13;;;;;;;64.60;52.10;;;;;;;3.42;100.00;99042.73;112686;1241;23101;-77
2023/11/11 06:28:24;;;;;;;68.30;52.20;;;;;;;3.40;100.00;99043.98;112606;1241;21977;-77
2023/11/11 06:31:15;;;;;;;66.80;50.70;;;;;;;3.40;100.00;99045.02;112874;1231;22053;-76
2023/11/11 06:34:12;;;;;;;66.30;49.70;;;;;;;3.42;100.00;99040.32;111807;1241;22918;-78
2023/11/11 06:36:50;;;;;;;59.10;48.30;;;;;;;3.43;100.00;99040.64;112892;1241;22716;-77
2023/11/11 06:39:30;;;;;;;63.20;49.70;;;;;;;3.43;100.00;99038.21;112759;1241;21949;-77
2023/11/11 06:42:09;;;;;;;58.50;49.40;;;;;;;3.44;100.00;99037.85;112006;1246;23045;-75
2023/11/11 06:44:50;;;;;;;63.40;51.70;;;;;;;3.43;100.00;99035.13;112111;1239;22074;-77
2023/11/11 06:47:41;;;;;;;54.80;47.90;;;;;;;3.42;100.00;99033.44;112155;1246;21965;-77
2023/11/11 06:50:44;;;;;;;57.40;49.20;;;;;;;3.31;100.00;99023.61;112081;1246;24515;-76
2023/11/11 06:53:49;;;;;;;41.10;36.40;;;;;;;3.38;100.00;99035.80;112829;1240;22400;-77
2023/11/11 06:56:52;;;;;;;42.20;37.30;;;;;;;3.33;100.00;99037.33;112974;1240;23704;-78
2023/11/11 07:00:15;;;;;;;43.60;39.20;;;;;;;3.34;100.00;99042.11;113038;1234;23733;-77
2023/11/11 07:03:24;;;;;;;54.70;48.80;;;;;;;3.32;100.00;99044.73;112660;1242;21958;-78
2023/11/11 07:06:22;;;;;;;47.40;42.40;;;;;;;3.32;100.00;99049.05;112720;1242;23682;-77
2023/11/11 07:09:08;;;;;;;46.70;42.00;;;;;;;3.29;100.00;99051.34;112394;1242;22292;-78
2023/11/11 07:11:50;;;;;;;46.10;41.50;;;;;;;3.31;100.00;99057.15;112670;1241;21962;-76
2023/11/11 07:14:54;;;;;;;50.80;45.50;;;;;;;3.26;100.00;99058.16;112573;1242;22047;-79
2023/11/11 07:17:29;;;;;;;52.80;47.50;;;;;;;3.27;100.00;99058.13;112265;1242;21960;-79
2023/11/11 07:20:44;;;;;;;55.20;49.60;;;;;;;3.32;100.00;99055.92;112320;1234;23015;-78
2023/11/11 07:23:35;;;;;;;57.20;51.40;;;;;;;3.34;100.00;99053.80;111413;1251;21945;-78
2023/11/11 07:26:46;;;;;;;56.40;50.60;;;;;;;3.33;100.00;99052.09;111086;1252;21999;-76
2023/11/11 07:29:40;;;;;;;57.90;51.40;;;;;;;3.36;100.00;99050.96;110935;1257;23750;-74
2023/11/11 07:32:36;;;;;;;53.90;47.30;;;;;;;3.40;100.00;99045.73;110848;1258;23771;-78
2023/11/11 07:35:50;;;;;;;;;;;;;;;;;;;;;
2023/11/11 07:38:32;;;;;;;55.60;48.80;;;;;;;3.41;100.00;99055.98;110819;1258;22976;-77
2023/11/11 07:41:46;;;;;;;66.60;54.20;;;;;;;3.39;100.00;99056.76;111686;1247;22049;-77
2023/11/11 07:44:46;;;;;;;64.80;54.40;;;;;;;3.33;100.00;99058.64;111398;1251;21971;-77
2023/11/11 07:47:43;;;;;;;80.50;61.00;;;;;;;3.25;100.00;99061.96;111574;1246;23022;-79
2023/11/11 07:50:53;;;;;;;68.70;58.20;;;;;;;3.17;100.00;99063.55;111955;1246;22210;-78
2023/11/11 07:54:10;;;;;;;;;;;;;;;;;;;;;
2023/11/11 07:56:49;;;;;;;98.30;76.10;;;;;;;3.24;100.00;99064.40;112228;1246;23684;-77
2023/11/11 07:59:23;;;;;;;108.40;81.70;;;;;;;3.28;100.00;99062.21;112048;1246;21960;-78
2023/11/11 08:02:50;;;;;;;91.00;78.70;;;;;;;3.32;100.00;99062.29;112833;1239;22010;-76
2023/11/11 08:05:54;;;;;;;78.80;66.50;;;;;;;3.34;100.00;99057.73;113020;1239;21954;-76
2023/11/11 08:08:37;;;;;;;77.90;65.50;;;;;;;3.39;100.00;99056.21;113003;1239;22804;-78
2023/11/11 08:11:48;;;;;;;84.00;66.70;;;;;;;3.52;100.00;99058.25;112941;1239;21933;-78
2023/11/11 08:14:37;;;;;;;80.80;67.00;;;;;;;3.74;100.00;99058.12;111968;1246;21968;-77
2023/11/11 08:17:33;;;;;;;79.10;67.40;;;;;;;3.99;100.00;99052.52;111924;1248;23710;-77
2023/11/11 08:20:43;;;;;;;77.60;64.20;;;;;;;4.26;100.00;99051.83;111923;1248;21948;-79
2023/11/11 08:23:23;;;;;;;75.20;64.50;;;;;;;4.49;100.00;99048.98;112236;1244;22970;-77
2023/11/11 08:26:10;;;;;;;68.70;60.40;;;;;;;4.69;100.00;99051.26;111853;1248;21973;-79
2023/11/11 08:29:08;;;;;;;70.60;62.90;;;;;;;4.90;100.00;99049.86;111755;1248;22154;-78
2023/11/11 08:31:59;;;;;;;90.40;78.80;;;;;;;5.10;100.00;99052.21;109447;1242;3335476;-77
2023/11/11 08:35:19;;;;;;;109.00;94.60;;;;;;;5.28;100.00;99046.91;112204;1246;22377;-78
2023/11/11 08:38:22;;;;;;;109.60;93.10;;;;;;;5.42;100.00;99042.58;111892;1246;23589;-79
2023/11/11 08:41:48;;;;;;;80.10;71.60;;;;;;;5.56;100.00;99036.38;112027;1246;23022;-78
2023/11/11 08:44:41;;;;;;;71.20;63.70;;;;;;;5.72;100.00;99036.26;111783;1247;22675;-78
2023/11/11 08:47:28;;;;;;;64.10;57.30;;;;;;;5.89;100.00;99038.53;111646;1245;22138;-79
2023/11/11 08:50:09;;;;;;;58.10;52.00;;;;;;;6.00;100.00;99039.32;111422;1252;21965;-79
2023/11/11 08:52:53;;;;;;;56.40;50.30;;;;;;;6.17;100.00;99040.55;111332;1251;23038;-78
2023/11/11 08:55:26;;;;;;;74.10;66.50;;;;;;;6.39;100.00;99042.27;111598;1252;23604;-77
2023/11/11 08:58:13;;;;;;;67.80;60.90;;;;;;;6.59;100.00;99043.31;111440;1243;24862;-79
2023/11/11 09:01:30;;;;;;;77.30;67.70;;;;;;;6.79;100.00;99042.29;111381;1251;21968;-78
2023/11/11 09:04:26;;;;;;;88.10;75.60;;;;;;;7.07;100.00;99043.33;111987;1246;23983;-78
2023/11/11 09:07:20;;;;;;;82.10;72.50;;;;;;;7.32;100.00;99042.23;112243;1245;21957;-78
2023/11/11 09:10:05;;;;;;;86.90;75.30;;;;;;;7.64;100.00;99045.10;112244;1239;21918;-79
2023/11/11 09:12:52;;;;;;;91.40;81.80;;;;;;;7.90;100.00;99040.92;112283;1245;21972;-77
2023/11/11 09:15:55;;;;;;;115.80;103.40;;;;;;;8.09;100.00;99031.34;112287;1245;22584;-77
2023/11/11 09:18:35;;;;;;;109.80;97.90;;;;;;;8.27;100.00;99028.23;112209;1245;21987;-76
2023/11/11 09:21:24;;;;;;;106.10;90.50;;;;;;;8.52;100.00;99028.89;112015;1245;23705;-77
2023/11/11 09:24:14;;;;;;;87.90;78.00;;;;;;;8.84;100.00;99024.14;112444;1240;21957;-77
2023/11/11 09:27:01;;;;;;;86.20;74.90;;;;;;;9.25;100.00;99021.15;112496;1240;21967;-77
2023/11/11 09:29:44;;;;;;;80.80;69.40;;;;;;;9.65;100.00;99017.94;112801;1241;23603;-77
2023/11/11 09:32:29;;;;;;;55.00;47.90;;;;;;;10.05;100.00;99020.21;113318;1234;23024;-77
2023/11/11 09:35:18;;;;;;;42.20;37.80;;;;;;;10.53;100.00;99018.71;113279;1234;23568;-77
2023/11/11 09:38:06;;;;;;;56.50;46.30;;;;;;;10.83;100.00;99016.27;113213;1234;21950;-77
2023/11/11 09:41:12;;;;;;;60.60;51.00;;;;;;;10.91;100.00;99016.63;113215;1234;23002;-78
2023/11/11 09:43:57;;;;;;;52.80;43.10;;;;;;;10.94;100.00;99012.77;113540;1234;21940;-81
2023/11/11 09:46:55;;;;;;;47.70;41.70;;;;;;;11.00;100.00;99010.02;113449;1234;21951;-80
2023/11/11 09:49:34;;;;;;;51.60;43.10;;;;;;;11.01;100.00;99011.16;113785;1234;21985;-80
2023/11/11 09:52:27;;;;;;;50.20;45.10;;;;;;;11.09;100.00;99009.11;113733;1234;21935;-80
2023/11/11 09:55:05;;;;;;;58.00;52.00;;;;;;;11.12;100.00;99002.78;113730;1234;21951;-80
2023/11/11 09:57:58;;;;;;;60.30;53.90;;;;;;;11.13;100.00;98997.52;113767;1234;21935;-79
2023/11/11 10:01:12;;;;;;;55.80;49.50;;;;;;;11.05;100.00;98992.45;113532;1234;24254;-79
2023/11/11 10:04:16;;;;;;;54.20;48.40;;;;;;;11.00;100.00;98993.82;113734;1234;21946;-79
2023/11/11 10:07:01;;;;;;;73.40;59.40;;;;;;;10.96;100.00;98989.87;113007;1240;22015;-78
2023/11/11 10:09:45;;;;;;;70.80;61.90;;;;;;;10.92;100.00;98991.51;113288;1239;21936;-81
2023/11/11 10:12:39;;;;;;;64.20;50.00;;;;;;;10.90;100.00;98987.45;112956;1240;22393;-82
2023/11/11 10:15:10;;;;;;;61.90;52.80;;;;;;;10.96;100.00;98983.06;113079;1240;23753;-77
2023/11/11 10:18:00;;;;;;;55.00;48.30;;;;;;;11.10;100.00;98981.52;112980;1232;21989;-79
2023/11/11 10:20:49;;;;;;;52.10;46.60;;;;;;;11.11;100.00;98959.53;112320;1244;23012;-80
2023/11/11 10:24:00;;;;;;;79.20;66.40;;;;;;;11.26;100.00;98975.48;112128;1250;21957;-80
2023/11/11 10:27:07;;;;;;;70.10;62.50;;;;;;;11.28;100.00;98974.85;111758;1252;23047;-81
2023/11/11 10:30:16;;;;;;;;;;;;;;;;;;;;;
2023/11/11 10:33:04;;;;;;;78.70;47.20;;;;;;;11.26;100.00;98970.11;113081;1234;22004;-81
2023/11/11 10:35:55;;;;;;;;;;;;;;;;;;;;;
2023/11/11 10:38:45;;;;;;;43.60;39.10;;;;;;;11.40;100.00;98970.30;113277;1238;22013;-78
2023/11/11 10:41:35;;;;;;;45.40;39.50;;;;;;;11.49;100.00;98970.89;112802;1242;22441;-80
2023/11/11 10:44:38;;;;;;;43.90;37.90;;;;;;;11.58;100.00;98970.33;112052;1248;23051;-78
2023/11/11 10:47:48;;;;;;;36.70;32.90;;;;;;;11.62;100.00;98967.86;112115;1248;23802;-78
2023/11/11 10:50:30;;;;;;;42.20;30.40;;;;;;;11.60;100.00;98960.98;112125;1248;21983;-78
2023/11/11 10:53:16;;;;;;;32.30;27.10;;;;;;;11.65;100.00;98955.09;111928;1244;24324;-81
2023/11/11 10:56:20;;;;;;;31.50;25.70;;;;;;;11.65;100.00;98948.50;111833;1249;21970;-78
2023/11/11 10:59:12;;;;;;;31.50;27.80;;;;;;;11.61;100.00;98947.84;111861;1238;21989;-79
2023/11/11 11:02:25;;;;;;;31.60;26.20;;;;;;;11.69;100.00;98948.90;112651;1239;22002;-77
2023/11/11 11:05:40;;;;;;;36.50;28.50;;;;;;;11.85;100.00;98942.27;112295;1245;23603;-78
2023/11/11 11:08:40;;;;;;;32.80;25.80;;;;;;;12.13;100.00;98937.71;112354;1245;22005;-77
2023/11/11 11:11:28;;;;;;;;;;;;;;;12.30;100.00;98939.73;112185;1245;23002;-79
2023/11/11 11:14:20;;;;;;;28.90;22.10;;;;;;;12.31;100.00;98941.39;112584;1239;23012;-80
2023/11/11 11:17:06;;;;;;;20.10;17.70;;;;;;;12.39;100.00;98945.39;112871;1239;21968;-78
2023/11/11 11:20:04;;;;;;;24.20;21.50;;;;;;;12.49;100.00;98947.31;112982;1239;21967;-79
2023/11/11 11:22:48;;;;;;;21.60;19.10;;;;;;;12.51;100.00;98945.60;112248;1246;23842;-78
2023/11/11 11:25:59;;;;;;;;;;;;;;;;;;;;;
2023/11/11 11:28:39;;;;;;;29.20;21.40;;;;;;;12.47;100.00;98944.09;112289;1241;23638;-78
2023/11/11 11:31:14;;;;;;;32.70;22.00;;;;;;;12.48;100.00;98946.84;112607;1241;21999;-79
2023/11/11 11:33:55;;;;;;;28.60;23.80;;;;;;;12.44;100.00;98946.73;112752;1240;22125;-80
2023/11/11 11:36:56;;;;;;;27.80;24.10;;;;;;;12.39;100.00;98945.86;112792;1241;21947;-78
2023/11/11 11:40:06;;;;;;;36.80;26.80;;;;;;;12.26;100.00;98942.21;112709;1241;23011;-79
2023/11/11 11:42:48;;;;;;;23.40;19.70;;;;;;;12.17;100.00;98940.19;113506;1234;23004;-78
2023/11/11 11:45:34;;;;;;;23.50;19.70;;;;;;;12.15;100.00;98945.45;113553;1233;21943;-78
2023/11/11 11:48:07;;;;;;;23.60;19.40;;;;;;;12.06;100.00;98948.77;113357;1234;21951;-79
2023/11/11 11:51:24;;;;;;;19.00;15.80;;;;;;;12.00;100.00;98947.30;113277;1228;22791;-78
2023/11/11 11:54:14;;;;;;;29.90;23.20;;;;;;;11.83;100.00;98944.52;112654;1241;23016;-79
2023/11/11 11:57:26;;;;;;;30.60;24.90;;;;;;;11.79;100.00;98945.80;112814;1240;21968;-79
2023/11/11 12:00:17;;;;;;;37.60;27.80;;;;;;;11.83;100.00;98946.09;112778;1241;21957;-78
2023/11/11 12:03:06;;;;;;;40.10;32.20;;;;;;;11.87;100.00;98942.14;112961;1240;22041;-79
2023/11/11 12:05:57;;;;;;;33.80;27.10;;;;;;;11.90;100.00;98942.67;112941;1241;23657;-79
2023/11/11 12:08:51;;;;;;;36.20;29.00;;;;;;;11.90;100.00;98941.11;112802;1241;23015;-78
2023/11/11 12:12:12;;;;;;;28.30;25.20;;;;;;;11.88;100.00;98941.59;112644;1234;21927;-79
2023/11/11 12:15:08;;;;;;;28.90;24.80;;;;;;;11.86;100.00;98943.27;113066;1238;22122;-79
2023/11/11 12:18:09;;;;;;;25.80;21.60;;;;;;;11.83;100.00;98936.33;113067;1238;23035;-79
2023/11/11 12:21:00;;;;;;;27.60;22.70;;;;;;;11.80;100.00;98937.41;112994;1238;21930;-79
2023/11/11 12:23:56;;;;;;;24.30;19.70;;;;;;;11.77;100.00;98932.02;113036;1238;21979;-80
2023/11/11 12:27:00;;;;;;;14.10;11.70;;;;;;;11.72;100.00;98929.71;113333;1238;21945;-79
2023/11/11 12:29:47;;;;;;;13.00;11.30;;;;;;;11.67;100.00;98935.94;112322;1243;22290;-78
2023/11/11 12:32:39;;;;;;;16.40;8.80;;;;;;;11.61;100.00;98938.07;112424;1239;23764;-79
2023/11/11 12:35:32;;;;;;;12.20;8.80;;;;;;;11.52;100.00;98936.20;112943;1239;21951;-77
2023/11/11 12:38:34;;;;;;;12.70;9.50;;;;;;;11.44;100.00;98935.88;112934;1239;23025;-78
2023/11/11 12:41:19;;;;;;;12.50;9.20;;;;;;;11.35;100.00;98936.94;112795;1242;22207;-80
2023/11/11 12:44:10;;;;;;;9.10;7.40;;;;;;;11.27;100.00;98940.07;112619;1242;23592;-79
2023/11/11 12:46:55;;;;;;;11.30;8.40;;;;;;;11.22;100.00;98943.92;112727;1238;22012;-79
2023/11/11 12:49:57;;;;;;;11.90;8.20;;;;;;;11.16;100.00;98938.70;112689;1238;23571;-80
2023/11/11 12:53:10;;;;;;;9.00;7.90;;;;;;;11.10;100.00;98937.68;112863;1238;21946;-79
2023/11/11 12:56:06;;;;;;;10.30;8.70;;;;;;;11.03;100.00;98938.09;112450;1243;21981;-78
2023/11/11 12:58:59;;;;;;;;;;;;;;;;;;;;;
2023/11/11 13:01:37;;;;;;;13.40;11.10;;;;;;;10.96;100.00;98938.52;112482;1245;22977;-83
2023/11/11 13:04:16;;;;;;;20.50;12.30;;;;;;;10.94;100.00;98940.20;112434;1245;22059;-82
2023/11/11 13:06:51;;;;;;;16.30;13.80;;;;;;;10.93;100.00;98939.92;112576;1244;23713;-83